createdAt,value
2019-04-16T00:01:07.340Z,27.67
2019-04-16T00:03:39.127Z,26.60
2019-04-16T00:06:22.954Z,28.02
2019-04-16T00:08:58.876Z,27.82
2019-04-16T00:11:39.663Z,28.20
2019-04-16T00:14:17.158Z,28.65
2019-04-16T00:16:47.134Z,28.98
2019-04-16T00:19:17.080Z,30.68
2019-04-16T00:21:54.699Z,29.27
2019-04-16T00:24:27.338Z,30.60
2019-04-16T00:26:59.121Z,32.15
2019-04-16T00:29:32.644Z,30.45
2019-04-16T00:32:01.489Z,30.62
2019-04-16T00:34:31.595Z,31.80
2019-04-16T00:37:01.603Z,29.70
2019-04-16T00:39:31.828Z,30.30
2019-04-16T00:42:01.837Z,28.40
2019-04-16T00:44:31.869Z,29.12
2019-04-16T00:47:01.852Z,28.90
2019-04-16T00:49:31.790Z,29.60
2019-04-16T00:52:05.921Z,30.30
2019-04-16T00:54:33.845Z,30.85
2019-04-16T00:57:04.154Z,30.25
2019-04-16T00:59:34.152Z,31.00
2019-04-16T01:02:04.129Z,29.80
2019-04-16T01:04:34.411Z,29.65
2019-04-16T01:07:04.578Z,28.57
2019-04-16T01:09:35.708Z,28.62
2019-04-16T01:12:05.848Z,28.52
2019-04-16T01:14:35.945Z,30.08
2019-04-16T01:17:05.940Z,30.17
2019-04-16T01:19:38.280Z,31.05
2019-04-16T01:22:07.639Z,31.75
2019-04-16T01:24:37.593Z,31.73
2019-04-16T01:27:07.716Z,30.70
2019-04-16T01:29:37.863Z,31.82
2019-04-16T01:32:18.409Z,32.25
2019-04-16T01:35:02.573Z,31.70
2019-04-16T01:37:39.888Z,32.38
2019-04-16T01:40:11.868Z,32.35
2019-04-16T01:42:41.883Z,31.15
2019-04-16T01:45:11.955Z,31.68
2019-04-16T01:47:41.988Z,31.68
2019-04-16T01:50:13.921Z,31.65
2019-04-16T01:52:43.605Z,31.52
2019-04-16T01:55:13.616Z,33.13
2019-04-16T01:57:43.663Z,31.40
2019-04-16T02:00:14.348Z,31.73
2019-04-16T02:02:46.270Z,31.68
2019-04-16T02:05:15.968Z,32.00
2019-04-16T02:07:45.978Z,31.80
2019-04-16T02:10:16.150Z,33.08
2019-04-16T02:12:46.226Z,32.38
2019-04-16T02:15:16.266Z,30.92
2019-04-16T02:17:46.352Z,30.55
2019-04-16T02:20:16.347Z,31.35
2019-04-16T02:22:46.358Z,30.40
2019-04-16T02:25:19.298Z,29.32
2019-04-16T02:27:48.156Z,31.15
2019-04-16T02:30:18.359Z,30.00
2019-04-16T02:32:48.314Z,31.93
2019-04-16T02:35:18.315Z,29.87
2019-04-16T02:37:48.313Z,30.82
2019-04-16T02:40:18.985Z,29.77
2019-04-16T02:42:50.552Z,28.07
2019-04-16T02:45:23.512Z,29.63
2019-04-16T02:47:52.359Z,30.40
2019-04-16T02:50:30.224Z,29.80
2019-04-16T02:53:01.106Z,29.92
2019-04-16T02:55:35.405Z,29.52
2019-04-16T02:58:16.389Z,29.63
2019-04-16T03:01:03.034Z,29.07
2019-04-16T03:03:34.808Z,28.62
2019-04-16T03:06:05.899Z,29.63
2019-04-16T03:08:36.131Z,29.12
2019-04-16T03:11:08.203Z,28.62
2019-04-16T03:13:38.216Z,27.30
2019-04-16T03:16:09.936Z,27.15
2019-04-16T03:18:46.693Z,27.73
2019-04-16T03:21:13.280Z,27.17
2019-04-16T03:23:43.310Z,28.02
2019-04-16T03:26:16.511Z,27.52
2019-04-16T03:28:45.024Z,28.55
2019-04-16T03:31:22.514Z,28.47
2019-04-16T03:33:50.387Z,27.32
2019-04-16T03:36:18.352Z,27.45
2019-04-16T03:38:48.345Z,27.87
2019-04-16T03:41:18.419Z,27.22
2019-04-16T03:43:48.382Z,27.87
2019-04-16T03:46:18.322Z,28.47
2019-04-16T03:48:48.340Z,27.15
2019-04-16T03:51:18.394Z,27.15
2019-04-16T03:53:49.664Z,26.80
2019-04-16T03:56:20.063Z,28.15
2019-04-16T03:58:50.060Z,27.60
2019-04-16T04:01:20.025Z,27.40
2019-04-16T04:03:50.538Z,27.67
2019-04-16T04:06:20.465Z,25.62
2019-04-16T04:08:53.114Z,24.82
2019-04-16T04:11:23.148Z,25.62
2019-04-16T04:13:53.264Z,23.75
2019-04-16T04:16:23.499Z,25.80
2019-04-16T04:18:53.998Z,26.27
2019-04-16T04:21:24.062Z,27.93
2019-04-16T04:23:53.988Z,25.25
2019-04-16T04:26:24.205Z,25.80
2019-04-16T04:28:54.496Z,25.52
2019-04-16T04:31:24.637Z,25.37
2019-04-16T04:33:54.926Z,24.98
2019-04-16T04:36:27.071Z,25.17
2019-04-16T04:38:57.421Z,24.57
2019-04-16T04:41:27.644Z,25.08
2019-04-16T04:43:57.660Z,25.12
2019-04-16T04:46:27.820Z,24.72
2019-04-16T04:49:00.189Z,23.65
2019-04-16T04:51:29.723Z,24.30
2019-04-16T04:53:59.853Z,24.57
2019-04-16T04:56:29.797Z,25.27
2019-04-16T04:59:02.423Z,24.60
2019-04-16T05:01:32.022Z,25.30
2019-04-16T05:04:06.364Z,26.62
2019-04-16T05:06:38.185Z,25.43
2019-04-16T05:09:08.218Z,25.45
2019-04-16T05:11:39.623Z,25.80
2019-04-16T05:14:09.813Z,26.17
2019-04-16T05:16:40.412Z,24.80
2019-04-16T05:19:13.743Z,24.72
2019-04-16T05:21:44.519Z,24.57
2019-04-16T05:24:15.068Z,24.37
2019-04-16T05:26:45.189Z,24.02
2019-04-16T05:29:17.365Z,23.22
2019-04-16T05:31:47.126Z,23.20
2019-04-16T05:34:18.318Z,23.05
2019-04-16T05:36:48.571Z,23.57
2019-04-16T05:39:18.958Z,23.75
2019-04-16T05:41:50.464Z,24.70
2019-04-16T05:44:21.317Z,25.20
2019-04-16T05:46:52.114Z,23.55
2019-04-16T05:49:24.943Z,24.15
2019-04-16T05:51:54.435Z,24.60
2019-04-16T05:54:35.284Z,23.85
2019-04-16T05:57:07.254Z,24.55
2019-04-16T05:59:37.623Z,23.75
2019-04-16T06:02:09.243Z,24.90
2019-04-16T06:04:39.458Z,26.15
2019-04-16T06:07:09.507Z,24.85
2019-04-16T06:09:41.492Z,26.05
2019-04-16T06:12:12.548Z,27.50
2019-04-16T06:14:53.828Z,27.52
2019-04-16T06:17:40.459Z,26.68
2019-04-16T06:20:21.728Z,28.05
2019-04-16T06:23:10.346Z,26.62
2019-04-16T06:25:42.223Z,27.48
2019-04-16T06:28:14.347Z,27.55
2019-04-16T06:30:45.982Z,27.98
2019-04-16T06:33:17.840Z,28.45
2019-04-16T06:35:52.132Z,29.15
2019-04-16T06:38:25.165Z,28.98
2019-04-16T06:41:15.206Z,27.93
2019-04-16T06:43:58.387Z,28.47
2019-04-16T06:46:31.191Z,27.42
2019-04-16T06:49:03.139Z,27.87
2019-04-16T06:51:51.304Z,26.02
2019-04-16T06:54:38.323Z,26.05
2019-04-16T06:57:12.174Z,26.60
2019-04-16T07:00:02.354Z,27.30
2019-04-16T07:02:43.078Z,24.57
2019-04-16T07:05:24.027Z,25.23
2019-04-16T07:08:10.698Z,26.12
2019-04-16T07:10:58.830Z,26.50
2019-04-16T07:13:29.779Z,26.48
2019-04-16T07:15:59.860Z,26.17
2019-04-16T07:18:30.073Z,27.48
2019-04-16T07:21:00.227Z,26.82
2019-04-16T07:23:30.577Z,26.97
2019-04-16T07:26:03.393Z,26.40
2019-04-16T07:28:50.845Z,25.37
2019-04-16T07:31:33.483Z,24.85
2019-04-16T07:34:02.363Z,23.90
2019-04-16T07:36:34.083Z,28.73
2019-04-16T07:39:29.155Z,26.05
2019-04-16T07:42:09.374Z,25.77
2019-04-16T07:44:47.224Z,21.12
2019-04-16T07:47:25.249Z,23.25
2019-04-16T07:50:00.466Z,21.60
2019-04-16T07:52:33.072Z,21.68
2019-04-16T07:55:05.460Z,18.52
2019-04-16T07:57:35.622Z,18.98
2019-04-16T08:00:09.870Z,17.65
2019-04-16T08:02:39.838Z,16.73
2019-04-16T08:05:12.955Z,14.40
2019-04-16T08:07:43.401Z,14.38
2019-04-16T08:10:16.651Z,13.72
2019-04-16T08:12:47.176Z,10.48
2019-04-16T08:15:19.519Z,10.20
2019-04-16T08:17:49.922Z,8.40
2019-04-16T08:20:21.208Z,8.55
2019-04-16T08:22:53.286Z,10.55
2019-04-16T08:25:33.743Z,9.03
2019-04-16T08:28:00.295Z,8.15
2019-04-16T08:30:34.119Z,7.67
2019-04-16T08:33:02.421Z,6.60
2019-04-16T08:35:32.416Z,5.78
2019-04-16T08:38:02.416Z,6.65
2019-04-16T08:40:32.448Z,6.30
2019-04-16T08:43:02.698Z,5.15
2019-04-16T08:45:32.863Z,5.28
2019-04-16T08:48:03.532Z,4.67
2019-04-16T08:50:34.016Z,5.37
2019-04-16T08:53:04.272Z,6.22
2019-04-16T08:55:34.687Z,5.17
2019-04-16T08:58:06.343Z,5.80
2019-04-16T09:00:37.889Z,5.00
2019-04-16T09:03:08.535Z,5.75
2019-04-16T09:05:41.265Z,5.70
2019-04-16T09:08:21.826Z,5.22
2019-04-16T09:10:49.799Z,5.28
2019-04-16T09:13:21.443Z,5.90
2019-04-16T09:15:51.566Z,5.65
2019-04-16T09:18:40.055Z,5.58
2019-04-16T09:21:11.701Z,5.40
2019-04-16T09:23:43.965Z,5.53
2019-04-16T09:26:22.588Z,5.20
2019-04-16T09:28:54.903Z,4.87
2019-04-16T09:31:35.387Z,5.95
2019-04-16T09:34:07.136Z,5.85
2019-04-16T09:36:51.807Z,5.28
2019-04-16T09:39:35.926Z,6.20
2019-04-16T09:42:06.397Z,5.87
2019-04-16T09:44:36.475Z,5.20
2019-04-16T09:47:06.517Z,4.85
2019-04-16T09:49:37.661Z,4.80
2019-04-16T09:52:08.994Z,5.30
2019-04-16T09:54:41.560Z,5.17
2019-04-16T09:57:11.159Z,5.53
2019-04-16T09:59:44.744Z,5.58
2019-04-16T10:02:19.247Z,6.05
2019-04-16T10:04:49.437Z,5.62
2019-04-16T10:07:19.882Z,5.30
2019-04-16T10:09:51.463Z,5.62
2019-04-16T10:12:21.865Z,5.53
2019-04-16T10:14:52.105Z,5.75
2019-04-16T10:17:22.893Z,6.50
2019-04-16T10:19:52.919Z,8.00
2019-04-16T10:22:23.554Z,5.83
2019-04-16T10:24:58.410Z,4.87
2019-04-16T10:27:36.609Z,5.08
2019-04-16T10:30:25.132Z,4.62
2019-04-16T10:32:55.505Z,5.25
2019-04-16T10:35:25.761Z,5.45
2019-04-16T10:37:55.843Z,5.80
2019-04-16T10:40:30.470Z,5.40
2019-04-16T10:43:20.382Z,5.72
2019-04-16T10:46:09.721Z,5.20
2019-04-16T10:48:46.536Z,5.10
2019-04-16T10:51:24.477Z,4.83
2019-04-16T10:53:59.510Z,4.55
2019-04-16T10:56:49.264Z,4.53
2019-04-16T10:59:30.386Z,4.75
2019-04-16T11:02:18.048Z,4.97
2019-04-16T11:04:56.127Z,5.25
2019-04-16T11:07:31.663Z,5.53
2019-04-16T11:10:01.744Z,5.30
2019-04-16T11:12:32.900Z,5.08
2019-04-16T11:15:06.457Z,5.62
2019-04-16T11:17:35.416Z,5.10
2019-04-16T11:20:07.008Z,4.93
2019-04-16T11:22:36.825Z,4.90
2019-04-16T11:25:07.741Z,6.58
2019-04-16T11:27:37.874Z,5.70
2019-04-16T11:30:10.286Z,4.70
2019-04-16T11:32:40.533Z,5.30
2019-04-16T11:35:13.049Z,4.83
2019-04-16T11:37:44.468Z,5.00
2019-04-16T11:40:13.460Z,4.03
2019-04-16T11:42:44.632Z,4.37
2019-04-16T11:45:15.266Z,4.57
2019-04-16T11:47:48.035Z,4.60
2019-04-16T11:50:17.207Z,4.37
2019-04-16T11:52:46.941Z,4.90
2019-04-16T11:55:16.962Z,4.43
2019-04-16T11:57:46.870Z,4.90
2019-04-16T12:00:19.719Z,4.97
2019-04-16T12:02:51.154Z,4.60
2019-04-16T12:05:22.491Z,5.40
2019-04-16T12:07:56.593Z,4.50
2019-04-16T12:10:46.151Z,4.77
2019-04-16T12:13:31.007Z,4.73
2019-04-16T12:16:02.434Z,4.40
2019-04-16T12:18:45.023Z,4.10
2019-04-16T12:21:16.433Z,4.10
2019-04-16T12:23:54.243Z,4.03
2019-04-16T12:26:38.289Z,4.50
2019-04-16T12:29:25.964Z,4.33
2019-04-16T12:32:04.144Z,4.53
2019-04-16T12:34:41.824Z,4.50
2019-04-16T12:37:22.100Z,5.10
2019-04-16T12:40:00.163Z,4.67
2019-04-16T12:42:34.830Z,4.40
2019-04-16T12:45:09.508Z,4.47
2019-04-16T12:47:47.095Z,5.20
2019-04-16T12:50:19.108Z,4.73
2019-04-16T12:52:54.929Z,4.93
2019-04-16T12:55:31.394Z,4.57
2019-04-16T12:57:59.642Z,4.77
2019-04-16T13:00:31.719Z,4.40
2019-04-16T13:03:05.627Z,4.80
2019-04-16T13:05:40.109Z,4.60
2019-04-16T13:08:17.087Z,4.77
2019-04-16T13:10:51.262Z,4.80
2019-04-16T13:13:22.803Z,4.93
2019-04-16T13:15:57.381Z,5.53
2019-04-16T13:18:34.854Z,5.17
2019-04-16T13:21:16.127Z,4.77
2019-04-16T13:23:48.899Z,4.93
2019-04-16T13:26:23.827Z,4.53
2019-04-16T13:28:55.432Z,5.03
2019-04-16T13:31:25.432Z,4.80
2019-04-16T13:33:55.181Z,5.17
2019-04-16T13:36:27.831Z,4.70
2019-04-16T13:38:57.990Z,4.40
2019-04-16T13:41:27.865Z,4.80
2019-04-16T13:43:59.186Z,4.70
2019-04-16T13:46:30.237Z,4.40
2019-04-16T13:49:14.383Z,4.00
2019-04-16T13:51:45.019Z,4.33
2019-04-16T13:54:28.083Z,4.53
2019-04-16T13:57:00.045Z,5.23
2019-04-16T13:59:31.630Z,4.43
2019-04-16T14:02:06.352Z,4.83
2019-04-16T14:04:37.095Z,4.67
2019-04-16T14:07:07.190Z,4.10
2019-04-16T14:09:36.943Z,4.03
2019-04-16T14:12:08.509Z,4.10
2019-04-16T14:14:38.398Z,4.00
2019-04-16T14:17:10.960Z,4.13
2019-04-16T14:19:41.003Z,4.33
2019-04-16T14:22:11.194Z,3.43
2019-04-16T14:24:41.233Z,3.73
2019-04-16T14:27:13.969Z,4.00
2019-04-16T14:29:42.776Z,4.00
2019-04-16T14:32:12.921Z,3.70
2019-04-16T14:34:50.303Z,3.70
2019-04-16T14:37:20.260Z,4.00
2019-04-16T14:40:03.953Z,3.87
2019-04-16T14:42:33.700Z,3.50
2019-04-16T14:45:09.807Z,3.43
2019-04-16T14:47:39.786Z,2.87
2019-04-16T14:50:13.173Z,3.03
2019-04-16T14:52:41.219Z,3.77
2019-04-16T14:55:29.523Z,3.80
2019-04-16T14:58:09.916Z,3.60
2019-04-16T15:00:56.632Z,3.97
2019-04-16T15:03:28.380Z,3.63
2019-04-16T15:06:11.972Z,3.53
2019-04-16T15:08:43.722Z,4.20
2019-04-16T15:11:21.031Z,3.60
2019-04-16T15:14:01.642Z,3.73
2019-04-16T15:16:33.330Z,3.93
2019-04-16T15:19:16.658Z,4.10
2019-04-16T15:22:04.495Z,4.00
2019-04-16T15:24:51.907Z,4.00
2019-04-16T15:27:23.384Z,4.00
2019-04-16T15:29:56.605Z,15.10
2019-04-16T15:32:27.869Z,4.37
2019-04-16T15:34:58.444Z,4.10
2019-04-16T15:37:45.159Z,3.93
2019-04-16T15:40:15.693Z,4.20
2019-04-16T15:42:49.883Z,4.33
2019-04-16T15:45:21.250Z,4.10
2019-04-16T15:48:11.063Z,4.37
2019-04-16T15:50:51.652Z,4.20
2019-04-16T15:53:39.620Z,4.23
2019-04-16T15:56:13.618Z,4.50
2019-04-16T15:58:45.070Z,4.33
2019-04-16T16:01:19.403Z,4.20
2019-04-16T16:03:56.968Z,4.50
2019-04-16T16:06:28.493Z,3.90
2019-04-16T16:08:59.896Z,4.30
2019-04-16T16:11:37.048Z,5.97
2019-04-16T16:14:07.009Z,4.83
2019-04-16T16:16:41.997Z,4.40
2019-04-16T16:19:10.948Z,3.97
2019-04-16T16:21:39.520Z,4.60
2019-04-16T16:24:09.268Z,4.63
2019-04-16T16:26:41.013Z,4.53
2019-04-16T16:29:10.697Z,4.93
2019-04-16T16:31:40.455Z,5.63
2019-04-16T16:34:10.194Z,4.30
2019-04-16T16:36:40.675Z,5.97
2019-04-16T16:39:10.758Z,6.60
2019-04-16T16:41:41.682Z,4.23
2019-04-16T16:44:11.341Z,3.53
2019-04-16T16:46:57.455Z,3.80
2019-04-16T16:49:23.139Z,3.90
2019-04-16T16:52:10.773Z,5.10
2019-04-16T16:54:42.303Z,6.20
2019-04-16T16:57:13.713Z,5.50
2019-04-16T16:59:51.709Z,5.43
2019-04-16T17:02:23.153Z,5.87
2019-04-16T17:04:54.493Z,6.25
2019-04-16T17:07:25.560Z,5.25
2019-04-16T17:09:55.707Z,4.60
2019-04-16T17:12:25.453Z,4.70
2019-04-16T17:14:55.200Z,4.50
2019-04-16T17:17:25.012Z,8.50
2019-04-16T17:19:55.066Z,5.80
2019-04-16T17:22:25.120Z,6.20
2019-04-16T17:24:55.147Z,6.03
2019-04-16T17:27:26.305Z,5.83
2019-04-16T17:29:56.430Z,5.80
2019-04-16T17:32:28.386Z,5.62
2019-04-16T17:34:58.422Z,6.42
2019-04-16T17:37:28.927Z,6.55
2019-04-16T17:40:00.790Z,6.20
2019-04-16T17:42:37.008Z,6.10
2019-04-16T17:45:20.244Z,5.17
2019-04-16T17:48:00.903Z,5.50
2019-04-16T17:50:39.713Z,5.47
2019-04-16T17:53:26.751Z,5.58
2019-04-16T17:58:55.252Z,5.95
2019-04-16T18:01:44.448Z,12.70
2019-04-16T18:04:19.351Z,6.00
2019-04-16T18:06:52.012Z,7.30
2019-04-16T18:09:23.751Z,6.08
2019-04-16T18:11:58.326Z,5.87
2019-04-16T18:14:46.418Z,7.10
2019-04-16T18:17:18.087Z,7.47
2019-04-16T18:19:55.625Z,6.67
2019-04-16T18:22:44.945Z,6.42
2019-04-16T18:25:21.908Z,7.20
2019-04-16T18:28:04.642Z,11.10
2019-04-16T18:30:50.737Z,14.00
2019-04-16T18:33:22.639Z,8.53
2019-04-16T18:36:06.457Z,6.47
2019-04-16T18:38:47.728Z,6.70
2019-04-16T18:41:19.520Z,7.22
2019-04-16T18:43:51.242Z,6.83
2019-04-16T18:46:23.012Z,6.80
2019-04-16T18:48:55.494Z,7.30
2019-04-16T18:51:25.809Z,7.92
2019-04-16T18:53:55.912Z,8.03
2019-04-16T18:56:26.001Z,7.25
2019-04-16T18:58:56.060Z,6.92
2019-04-16T19:01:29.621Z,18.23
2019-04-16T19:03:59.523Z,7.75
2019-04-16T19:06:29.648Z,6.65
2019-04-16T19:08:59.630Z,6.65
2019-04-16T19:11:29.701Z,6.35
2019-04-16T19:14:00.002Z,4.95
2019-04-16T19:16:30.107Z,5.40
2019-04-16T19:19:00.162Z,4.20
2019-04-16T19:21:30.269Z,4.78
2019-04-16T19:24:00.510Z,3.25
2019-04-16T19:26:30.732Z,3.20
2019-04-16T19:29:03.872Z,3.02
2019-04-16T19:31:33.218Z,3.80
2019-04-16T19:34:09.042Z,3.90
2019-04-16T19:36:36.836Z,3.70
2019-04-16T19:39:13.735Z,4.20
2019-04-16T19:41:41.234Z,4.15
2019-04-16T19:44:11.081Z,4.30
2019-04-16T19:46:45.923Z,4.20
2019-04-16T19:49:15.828Z,4.47
2019-04-16T19:51:49.263Z,4.55
2019-04-16T19:54:24.039Z,15.13
2019-04-16T19:56:54.159Z,4.97
2019-04-16T19:59:24.282Z,5.08
2019-04-16T20:01:59.573Z,4.87
2019-04-16T20:04:26.777Z,4.92
2019-04-16T20:07:00.857Z,5.17
2019-04-16T20:09:29.968Z,4.75
2019-04-16T20:12:00.700Z,5.30
2019-04-16T20:14:35.331Z,9.38
2019-04-16T20:17:04.094Z,6.00
2019-04-16T20:19:35.789Z,4.85
2019-04-16T20:22:05.849Z,5.25
2019-04-16T20:24:38.024Z,5.85
2019-04-16T20:27:08.007Z,5.87
2019-04-16T20:29:39.736Z,5.67
2019-04-16T20:32:09.964Z,5.30
2019-04-16T20:34:42.332Z,5.75
2019-04-16T20:37:11.791Z,5.87
2019-04-16T20:39:41.990Z,6.33
2019-04-16T20:42:12.019Z,6.50
2019-04-16T20:44:42.095Z,7.08
2019-04-16T20:47:12.219Z,6.47
2019-04-16T20:49:42.254Z,7.05
2019-04-16T20:52:12.245Z,7.10
2019-04-16T20:54:44.902Z,6.95
2019-04-16T20:57:14.995Z,7.15
2019-04-16T20:59:44.982Z,8.73
2019-04-16T21:02:14.982Z,7.75
2019-04-16T21:04:45.083Z,7.72
2019-04-16T21:07:15.505Z,8.60
2019-04-16T21:09:45.989Z,8.45
2019-04-16T21:12:16.123Z,9.13
2019-04-16T21:14:46.236Z,8.98
2019-04-16T21:17:16.258Z,8.75
2019-04-16T21:19:47.789Z,8.88
2019-04-16T21:22:19.085Z,9.25
2019-04-16T21:24:49.087Z,10.20
2019-04-16T21:27:19.177Z,10.15
2019-04-16T21:29:49.907Z,9.73
2019-04-16T21:32:24.659Z,10.00
2019-04-16T21:35:00.884Z,10.43
2019-04-16T21:37:48.420Z,9.95
2019-04-16T21:40:37.775Z,10.10
2019-04-16T21:43:08.869Z,10.68
2019-04-16T21:45:40.036Z,11.38
2019-04-16T21:48:12.378Z,10.55
2019-04-16T21:50:44.524Z,10.63
2019-04-16T21:53:13.531Z,10.48
2019-04-16T21:55:43.575Z,14.70
2019-04-16T21:58:14.549Z,15.38
2019-04-16T22:00:47.185Z,11.73
2019-04-16T22:03:23.331Z,11.08
2019-04-16T22:05:53.337Z,10.85
2019-04-16T22:08:23.329Z,10.98
2019-04-16T22:10:53.288Z,11.60
2019-04-16T22:13:23.370Z,11.50
2019-04-16T22:15:53.687Z,11.97
2019-04-16T22:18:25.325Z,11.83
2019-04-16T22:20:55.975Z,11.90
2019-04-16T22:23:27.168Z,11.97
2019-04-16T22:26:01.367Z,12.45
2019-04-16T22:28:28.955Z,12.88
2019-04-16T22:31:00.035Z,12.88
2019-04-16T22:33:30.167Z,12.47
2019-04-16T22:36:00.224Z,14.95
2019-04-16T22:38:31.998Z,26.65
2019-04-16T22:41:03.685Z,14.05
2019-04-16T22:43:47.237Z,13.95
2019-04-16T22:46:28.160Z,14.38
2019-04-16T22:48:59.716Z,13.68
2019-04-16T22:51:29.791Z,14.15
2019-04-16T22:53:59.767Z,14.07
2019-04-16T22:56:37.688Z,14.33
2019-04-16T22:59:08.366Z,15.83
2019-04-16T23:01:46.275Z,19.67
2019-04-16T23:04:16.493Z,17.07
2019-04-16T23:06:46.420Z,16.23
2019-04-16T23:09:17.141Z,15.55
2019-04-16T23:11:47.885Z,15.78
2019-04-16T23:14:17.890Z,15.30
2019-04-16T23:16:47.860Z,15.85
2019-04-16T23:19:20.565Z,15.60
2019-04-16T23:21:49.607Z,15.75
2019-04-16T23:24:22.965Z,15.63
2019-04-16T23:26:51.323Z,16.10
2019-04-16T23:29:21.347Z,15.98
2019-04-16T23:31:55.032Z,15.63
2019-04-16T23:34:23.775Z,15.25
2019-04-16T23:36:54.092Z,15.32
2019-04-16T23:39:24.047Z,15.00
2019-04-16T23:41:54.021Z,15.70
2019-04-16T23:44:41.975Z,16.07
2019-04-16T23:47:29.722Z,15.40
2019-04-16T23:50:04.016Z,16.90
2019-04-16T23:52:35.767Z,16.50
2019-04-16T23:55:17.460Z,16.67
2019-04-16T23:58:03.836Z,17.77
